Time;durP1;ratioP1;P1;durP2;ratioP2;P2;SDS_P1;SDS_P2;PMS_P1;PMS_P2;Temp;Humidity;BMP_temperature;BMP_pressure;BME280_temperature;BME280_humidity;BME280_pressure;Samples;Min_cycle;Max_cycle;Signal;HPM_P1;HPM_P2
2024/01/26 00:01:51;;;;;;;4.97;4.27;;;8.90;99.90;;;;;;4824591;29;20199;-69
2024/01/26 00:04:16;;;;;;;7.33;4.00;;;8.90;99.90;;;;;;4811413;29;20540;-72
2024/01/26 00:06:42;;;;;;;6.77;4.03;;;8.90;99.90;;;;;;4811970;29;20218;-71
2024/01/26 00:09:12;;;;;;;4.50;3.40;;;8.90;99.90;;;;;;4826569;29;20263;-72
2024/01/26 00:11:38;;;;;;;4.43;3.13;;;8.90;99.90;;;;;;4810677;29;20459;-72
2024/01/26 00:14:05;;;;;;;5.60;3.90;;;8.90;99.90;;;;;;4811254;29;20874;-72
2024/01/26 00:16:30;;;;;;;4.83;4.33;;;8.90;99.90;;;;;;4817935;29;20511;-72
2024/01/26 00:18:56;;;;;;;6.20;3.83;;;8.90;99.90;;;;;;4824824;29;20486;-70
2024/01/26 00:21:21;;;;;;;8.50;4.40;;;8.90;99.90;;;;;;4822906;29;20202;-71
2024/01/26 00:23:47;;;;;;;5.30;4.10;;;8.90;99.90;;;;;;4819545;29;20226;-70
2024/01/26 00:26:13;;;;;;;6.50;3.80;;;8.90;99.90;;;;;;4834515;29;20311;-71
2024/01/26 00:28:39;;;;;;;6.80;4.33;;;8.90;99.90;;;;;;4818670;29;20197;-71
2024/01/26 00:31:04;;;;;;;4.70;3.50;;;8.90;99.90;;;;;;4817832;29;20434;-70
2024/01/26 00:33:30;;;;;;;6.63;4.33;;;8.90;99.90;;;;;;4817570;29;20494;-69
2024/01/26 00:35:56;;;;;;;6.07;4.57;;;8.90;99.90;;;;;;4813963;29;20225;-70
2024/01/26 00:38:21;;;;;;;11.87;5.30;;;8.90;99.90;;;;;;4814004;29;20447;-70
2024/01/26 00:40:47;;;;;;;8.73;4.80;;;9.00;99.90;;;;;;4827150;29;20428;-70
2024/01/26 00:43:13;;;;;;;9.33;5.30;;;9.00;99.90;;;;;;4813062;29;20214;-69
2024/01/26 00:45:39;;;;;;;8.50;5.13;;;9.00;99.90;;;;;;4810203;29;20305;-69
2024/01/26 00:48:05;;;;;;;8.40;5.97;;;9.00;99.90;;;;;;4813602;29;20186;-70
2024/01/26 00:50:30;;;;;;;6.90;4.70;;;9.00;99.90;;;;;;4810232;29;20460;-69
2024/01/26 00:52:56;;;;;;;5.10;4.00;;;9.00;99.90;;;;;;4809888;29;20422;-70
2024/01/26 00:55:22;;;;;;;5.97;4.07;;;9.00;99.90;;;;;;4812447;29;20309;-69
2024/01/26 00:57:48;;;;;;;4.60;3.50;;;9.00;99.90;;;;;;4808855;29;20435;-69
2024/01/26 01:00:14;;;;;;;4.70;3.67;;;9.00;99.90;;;;;;4809794;29;20580;-70
2024/01/26 01:02:40;;;;;;;8.17;4.83;;;9.00;99.90;;;;;;4811500;29;20614;-68
2024/01/26 01:05:06;;;;;;;7.57;4.50;;;9.10;99.90;;;;;;4811211;29;20492;-70
2024/01/26 01:07:32;;;;;;;4.93;4.30;;;9.00;99.90;;;;;;4810141;29;20224;-69
2024/01/26 01:09:58;;;;;;;5.43;3.80;;;9.10;99.90;;;;;;4810790;29;20528;-69
2024/01/26 01:12:23;;;;;;;4.53;3.70;;;9.10;99.90;;;;;;4810583;29;20629;-70
2024/01/26 01:14:49;;;;;;;5.47;4.20;;;9.10;99.90;;;;;;4809836;29;20207;-70
2024/01/26 01:17:14;;;;;;;5.83;4.47;;;9.10;99.90;;;;;;4809531;29;20206;-69
2024/01/26 01:19:40;;;;;;;4.57;3.73;;;9.10;99.90;;;;;;4812834;29;20202;-71
2024/01/26 01:22:05;;;;;;;4.20;3.00;;;9.10;99.90;;;;;;4813244;29;20193;-69
2024/01/26 01:24:31;;;;;;;5.23;3.57;;;9.10;99.90;;;;;;4809800;29;20234;-69
2024/01/26 01:26:57;;;;;;;3.03;2.73;;;9.10;99.90;;;;;;4809412;29;20263;-68
2024/01/26 01:29:22;;;;;;;4.40;3.17;;;9.10;99.90;;;;;;4809517;29;20206;-69
2024/01/26 01:31:48;;;;;;;3.90;3.20;;;9.10;99.90;;;;;;4809664;29;20285;-71
2024/01/26 01:34:13;;;;;;;3.50;2.80;;;9.20;99.90;;;;;;4810325;29;20199;-68
2024/01/26 01:36:39;;;;;;;3.93;2.90;;;9.20;99.90;;;;;;4810445;29;20346;-70
2024/01/26 01:39:05;;;;;;;3.13;2.80;;;9.20;99.90;;;;;;4809473;29;20210;-70
2024/01/26 01:41:31;;;;;;;3.17;2.50;;;9.20;99.90;;;;;;4809363;29;20194;-70
2024/01/26 01:43:57;;;;;;;3.87;2.87;;;9.20;99.90;;;;;;4809069;29;20468;-70
2024/01/26 01:46:23;;;;;;;3.43;2.53;;;9.20;99.90;;;;;;4809475;29;20609;-69
2024/01/26 01:48:50;;;;;;;3.57;2.60;;;9.30;99.90;;;;;;4810909;29;20543;-69
2024/01/26 01:51:16;;;;;;;2.63;2.10;;;9.30;99.90;;;;;;4812459;29;20298;-70
2024/01/26 01:53:42;;;;;;;2.27;1.80;;;9.30;99.90;;;;;;4809119;29;20435;-70
2024/01/26 01:56:11;;;;;;;3.37;1.90;;;9.30;99.90;;;;;;4809726;29;20909;-70
2024/01/26 01:58:38;;;;;;;2.37;1.97;;;9.30;99.90;;;;;;4807359;29;20618;-71
2024/01/26 02:01:04;;;;;;;7.67;3.97;;;9.30;99.90;;;;;;4809866;29;20442;-71
2024/01/26 02:03:30;;;;;;;4.30;3.90;;;9.40;99.90;;;;;;4810943;29;20902;-70
2024/01/26 02:05:56;;;;;;;4.90;3.50;;;9.40;99.90;;;;;;4808956;29;20218;-69
2024/01/26 02:08:22;;;;;;;4.20;3.57;;;9.40;99.90;;;;;;4810851;29;20771;-70
2024/01/26 02:10:47;;;;;;;4.57;3.67;;;9.40;99.90;;;;;;4808259;29;20464;-71
2024/01/26 02:13:13;;;;;;;4.40;3.83;;;9.40;99.90;;;;;;4809156;29;20206;-69
2024/01/26 02:15:38;;;;;;;3.67;3.17;;;9.40;99.90;;;;;;4808337;29;20210;-69
2024/01/26 02:18:04;;;;;;;4.33;3.37;;;9.40;99.90;;;;;;4809312;29;20214;-70
2024/01/26 02:20:30;;;;;;;5.23;4.07;;;9.50;99.90;;;;;;4824093;29;20343;-69
2024/01/26 02:22:55;;;;;;;5.43;4.53;;;9.50;99.90;;;;;;4808396;29;20624;-70
2024/01/26 02:25:21;;;;;;;5.20;4.03;;;9.50;99.90;;;;;;4808255;29;20293;-68
2024/01/26 02:27:46;;;;;;;4.33;3.50;;;9.50;99.90;;;;;;4808093;29;20198;-69
2024/01/26 02:30:12;;;;;;;4.73;3.40;;;9.50;99.90;;;;;;4807978;29;20186;-69
2024/01/26 02:32:38;;;;;;;5.13;3.83;;;9.60;99.90;;;;;;4809261;29;20496;-69
2024/01/26 02:35:04;;;;;;;6.50;3.10;;;9.60;99.90;;;;;;4809315;29;20237;-70
2024/01/26 02:37:29;;;;;;;4.40;3.10;;;9.60;99.90;;;;;;4808267;29;20196;-69
2024/01/26 02:39:55;;;;;;;3.93;3.10;;;9.60;99.90;;;;;;4808054;29;20672;-71
2024/01/26 02:42:21;;;;;;;3.40;2.87;;;9.60;99.90;;;;;;4808191;29;20202;-70
2024/01/26 02:44:46;;;;;;;4.50;3.20;;;9.60;99.90;;;;;;4808584;29;20881;-69
2024/01/26 02:47:12;;;;;;;3.57;2.53;;;9.60;99.90;;;;;;4808323;29;20269;-69
2024/01/26 02:49:42;;;;;;;3.37;3.07;;;9.60;99.90;;;;;;4813905;29;20567;-71
2024/01/26 02:52:07;;;;;;;3.40;2.70;;;9.60;99.90;;;;;;4807767;29;20202;-71
2024/01/26 02:54:33;;;;;;;4.03;3.33;;;9.60;99.90;;;;;;4808051;29;20707;-72
2024/01/26 02:56:58;;;;;;;4.43;3.93;;;9.70;99.90;;;;;;4807991;29;20226;-69
2024/01/26 02:59:24;;;;;;;5.60;3.90;;;9.70;99.90;;;;;;4809809;29;20286;-70
2024/01/26 03:01:50;;;;;;;6.40;3.10;;;9.60;99.90;;;;;;4807863;29;20543;-71
2024/01/26 03:04:18;;;;;;;6.17;3.60;;;9.70;99.90;;;;;;4812834;29;20329;-70
2024/01/26 03:06:44;;;;;;;5.37;4.57;;;9.70;99.90;;;;;;4807609;29;20214;-70
2024/01/26 03:09:10;;;;;;;5.23;4.30;;;9.70;99.90;;;;;;4808279;29;20459;-70
2024/01/26 03:11:40;;;;;;;6.20;4.17;;;9.70;99.90;;;;;;4807674;29;20428;-70
2024/01/26 03:14:09;;;;;;;3.93;3.03;;;9.70;99.90;;;;;;4807827;29;20616;-69
2024/01/26 03:16:38;;;;;;;4.53;4.07;;;9.70;99.90;;;;;;4806998;29;20937;-70
2024/01/26 03:19:03;;;;;;;4.60;3.03;;;9.70;99.90;;;;;;4812183;29;20661;-69
2024/01/26 03:21:29;;;;;;;4.73;4.07;;;9.70;99.90;;;;;;4808302;29;20515;-70
2024/01/26 03:23:55;;;;;;;4.00;3.60;;;9.80;99.90;;;;;;4807153;29;20640;-69
2024/01/26 03:26:20;;;;;;;3.00;2.70;;;9.80;99.90;;;;;;4806862;29;20222;-70
2024/01/26 03:28:46;;;;;;;3.53;2.70;;;9.80;99.90;;;;;;4807568;29;20238;-70
2024/01/26 03:31:12;;;;;;;4.77;3.70;;;9.80;99.90;;;;;;4807819;29;20206;-71
2024/01/26 03:33:37;;;;;;;2.80;2.40;;;9.80;99.90;;;;;;4810385;29;20434;-70
2024/01/26 03:36:03;;;;;;;3.50;3.20;;;9.90;99.90;;;;;;4807222;29;20218;-69
2024/01/26 03:38:29;;;;;;;3.50;2.90;;;9.90;99.90;;;;;;4806952;29;20203;-71
2024/01/26 03:40:54;;;;;;;4.60;3.70;;;9.90;99.90;;;;;;4807304;29;20481;-69
2024/01/26 03:43:20;;;;;;;3.80;2.90;;;9.90;99.90;;;;;;4807400;29;20236;-70
2024/01/26 03:45:46;;;;;;;3.20;2.57;;;9.90;99.90;;;;;;4807326;29;20581;-70
2024/01/26 03:48:12;;;;;;;4.80;3.13;;;9.90;99.90;;;;;;4809297;29;20515;-70
2024/01/26 03:50:37;;;;;;;3.07;2.77;;;9.90;99.90;;;;;;4807103;29;20268;-69
2024/01/26 03:53:03;;;;;;;2.90;2.60;;;9.90;99.90;;;;;;4807042;29;20214;-70
2024/01/26 03:55:28;;;;;;;3.17;2.87;;;9.90;99.90;;;;;;4806659;29;20218;-70
2024/01/26 03:57:54;;;;;;;3.40;2.50;;;9.90;99.90;;;;;;4806885;29;20196;-70
2024/01/26 04:00:19;;;;;;;2.80;2.50;;;9.90;99.90;;;;;;4807435;29;20205;-69
2024/01/26 04:02:45;;;;;;;3.40;2.80;;;10.00;99.90;;;;;;4808251;29;20249;-70
2024/01/26 04:05:11;;;;;;;2.70;2.40;;;10.00;99.90;;;;;;4806166;29;20195;-70
2024/01/26 04:07:37;;;;;;;4.17;3.50;;;10.00;99.90;;;;;;4807368;29;20278;-71
2024/01/26 04:10:03;;;;;;;3.97;3.20;;;10.10;99.90;;;;;;4806336;29;20446;-70
2024/01/26 04:12:29;;;;;;;3.40;3.00;;;10.10;99.90;;;;;;4806105;29;20447;-69
2024/01/26 04:14:54;;;;;;;2.57;2.37;;;10.10;99.90;;;;;;4806706;29;20201;-70
2024/01/26 04:17:20;;;;;;;2.43;2.23;;;10.10;99.90;;;;;;4806517;29;20219;-70
2024/01/26 04:19:45;;;;;;;3.53;2.70;;;10.10;99.90;;;;;;4809704;29;20642;-71
2024/01/26 04:22:11;;;;;;;3.07;2.60;;;10.10;99.90;;;;;;4809141;29;20199;-70
2024/01/26 04:24:36;;;;;;;3.57;2.70;;;10.10;99.90;;;;;;4806589;29;20737;-70
2024/01/26 04:27:02;;;;;;;3.53;2.93;;;10.10;99.90;;;;;;4806198;29;20238;-69
2024/01/26 04:29:28;;;;;;;3.40;2.53;;;10.20;99.90;;;;;;4806803;29;20290;-69
2024/01/26 04:31:53;;;;;;;4.30;2.73;;;10.10;99.90;;;;;;4806513;29;20523;-70
2024/01/26 04:34:19;;;;;;;3.90;2.63;;;10.10;99.90;;;;;;4807871;29;20215;-70
2024/01/26 04:36:46;;;;;;;3.70;3.13;;;10.20;99.90;;;;;;4806428;29;20641;-71
2024/01/26 04:39:12;;;;;;;3.93;3.20;;;10.10;99.90;;;;;;4806285;29;20542;-70
2024/01/26 04:41:38;;;;;;;6.47;3.23;;;10.10;99.90;;;;;;4805860;29;20433;-70
2024/01/26 04:44:03;;;;;;;5.80;2.50;;;10.10;99.90;;;;;;4806280;29;20589;-70
2024/01/26 04:46:29;;;;;;;2.53;2.33;;;10.10;99.90;;;;;;4806428;29;20219;-70
2024/01/26 04:48:54;;;;;;;2.73;2.40;;;10.10;99.90;;;;;;4807686;29;20286;-70
2024/01/26 04:51:20;;;;;;;3.40;2.23;;;10.00;99.90;;;;;;4808486;29;20198;-72
2024/01/26 04:53:45;;;;;;;2.60;2.13;;;9.90;99.90;;;;;;4805072;29;20258;-70
2024/01/26 04:56:14;;;;;;;2.80;2.40;;;9.80;99.90;;;;;;4806910;29;20294;-71
2024/01/26 04:58:40;;;;;;;2.70;2.20;;;9.80;99.90;;;;;;4807479;29;20481;-70
2024/01/26 05:01:06;;;;;;;2.40;1.93;;;9.70;99.90;;;;;;4810687;29;20449;-71
2024/01/26 05:03:32;;;;;;;5.10;2.53;;;9.80;99.90;;;;;;4815864;29;20485;-70
2024/01/26 05:05:58;;;;;;;2.20;1.97;;;9.80;99.90;;;;;;4811415;29;20535;-69
2024/01/26 05:08:23;;;;;;;4.10;2.40;;;9.80;99.90;;;;;;4812224;29;20193;-71
2024/01/26 05:10:49;;;;;;;2.30;2.10;;;9.90;99.90;;;;;;4811440;29;20253;-70
2024/01/26 05:13:14;;;;;;;2.87;1.50;;;9.90;99.90;;;;;;4812734;29;20213;-71
2024/01/26 05:15:40;;;;;;;2.63;2.00;;;9.90;99.90;;;;;;4813532;29;20226;-72
2024/01/26 05:18:08;;;;;;;3.60;2.17;;;10.00;99.90;;;;;;4817111;29;20243;-71
2024/01/26 05:20:33;;;;;;;2.57;1.90;;;10.00;99.90;;;;;;4814045;29;20211;-71
2024/01/26 05:22:59;;;;;;;3.20;2.43;;;10.10;99.90;;;;;;4811829;29;20477;-73
2024/01/26 05:25:24;;;;;;;3.97;2.40;;;10.00;99.90;;;;;;4826921;29;20206;-72
2024/01/26 05:27:50;;;;;;;3.50;1.97;;;10.10;99.90;;;;;;4813143;29;20516;-69
2024/01/26 05:30:16;;;;;;;2.00;1.70;;;10.10;99.90;;;;;;4814066;29;20204;-71
2024/01/26 05:32:43;;;;;;;2.63;1.80;;;10.10;99.90;;;;;;4813725;29;20293;-73
2024/01/26 05:35:09;;;;;;;3.20;2.00;;;10.00;99.90;;;;;;4813800;29;20214;-72
2024/01/26 05:37:35;;;;;;;2.20;1.60;;;9.90;99.90;;;;;;4818330;29;20447;-72
2024/01/26 05:40:05;;;;;;;3.13;1.97;;;9.80;99.90;;;;;;4819701;29;20203;-71
2024/01/26 05:42:30;;;;;;;2.97;1.73;;;9.70;99.90;;;;;;4815443;29;20440;-72
2024/01/26 05:44:56;;;;;;;3.17;1.73;;;9.60;99.90;;;;;;4812993;29;20439;-71
2024/01/26 05:47:21;;;;;;;1.67;1.40;;;9.50;99.90;;;;;;4812189;29;20207;-70
2024/01/26 05:49:47;;;;;;;2.10;1.60;;;9.50;99.90;;;;;;4817428;29;20291;-72
2024/01/26 05:52:13;;;;;;;2.10;1.40;;;9.60;99.90;;;;;;4813601;29;20282;-71
2024/01/26 05:54:38;;;;;;;3.87;1.70;;;9.60;99.90;;;;;;4814724;29;20243;-74
2024/01/26 05:57:04;;;;;;;1.70;1.20;;;9.70;99.90;;;;;;4817492;29;20351;-72
2024/01/26 05:59:29;;;;;;;1.70;1.37;;;9.80;99.90;;;;;;4816507;29;20207;-73
2024/01/26 06:01:55;;;;;;;1.77;1.50;;;9.80;99.90;;;;;;4817364;29;20206;-75
2024/01/26 06:04:21;;;;;;;2.30;1.60;;;9.80;99.90;;;;;;4818093;29;20317;-70
2024/01/26 06:06:46;;;;;;;1.80;1.40;;;9.90;99.90;;;;;;4817459;29;20211;-69
2024/01/26 06:09:12;;;;;;;2.13;1.50;;;9.90;99.90;;;;;;4817012;29;20254;-71
2024/01/26 06:11:43;;;;;;;2.40;1.40;;;9.80;99.90;;;;;;4814608;29;20214;-71
2024/01/26 06:14:09;;;;;;;1.80;1.50;;;9.80;99.90;;;;;;4813075;29;20199;-72
2024/01/26 06:16:36;;;;;;;3.20;1.87;;;9.80;99.90;;;;;;4811797;29;20597;-76
2024/01/26 06:19:02;;;;;;;2.73;1.60;;;9.80;99.90;;;;;;4816880;29;20523;-75
2024/01/26 06:21:28;;;;;;;2.30;1.80;;;9.70;99.90;;;;;;4812858;29;20209;-74
2024/01/26 06:23:53;;;;;;;3.83;1.70;;;9.70;99.90;;;;;;4814427;29;20519;-73
2024/01/26 06:26:20;;;;;;;2.10;1.67;;;9.70;99.90;;;;;;4814720;29;20211;-74
2024/01/26 06:28:46;;;;;;;2.73;1.70;;;9.70;99.90;;;;;;4813294;29;20187;-75
2024/01/26 06:31:11;;;;;;;3.37;1.90;;;9.70;99.90;;;;;;4814332;29;20885;-77
2024/01/26 06:33:37;;;;;;;2.73;2.03;;;9.70;99.90;;;;;;4815812;29;20505;-76
2024/01/26 06:36:03;;;;;;;3.40;1.90;;;9.70;99.90;;;;;;4814300;29;20214;-73
2024/01/26 06:38:28;;;;;;;3.30;2.20;;;9.70;99.90;;;;;;4813755;29;20198;-74
2024/01/26 06:40:54;;;;;;;2.07;1.60;;;9.80;99.90;;;;;;4812619;29;20968;-75
2024/01/26 06:43:20;;;;;;;2.50;1.90;;;9.80;99.90;;;;;;4813542;29;20225;-76
2024/01/26 06:45:46;;;;;;;2.80;1.93;;;9.80;99.90;;;;;;4813626;29;20297;-73
2024/01/26 06:48:11;;;;;;;1.90;1.70;;;9.80;99.90;;;;;;4828702;29;20440;-75
2024/01/26 06:50:38;;;;;;;3.07;1.70;;;9.80;99.90;;;;;;4816466;29;20279;-74
2024/01/26 06:53:04;;;;;;;2.10;1.53;;;9.80;99.90;;;;;;4813441;29;20199;-72
2024/01/26 06:55:29;;;;;;;2.70;2.03;;;9.80;99.90;;;;;;4814421;29;20618;-76
2024/01/26 06:57:56;;;;;;;2.80;2.13;;;9.80;99.90;;;;;;4815317;29;20202;-73
2024/01/26 07:00:21;;;;;;;2.33;1.80;;;9.80;99.90;;;;;;4814872;29;20202;-73
2024/01/26 07:02:47;;;;;;;4.37;1.97;;;9.80;99.90;;;;;;4814700;29;20471;-74
2024/01/26 07:05:13;;;;;;;2.00;1.50;;;9.80;99.90;;;;;;4814722;29;20252;-76
2024/01/26 07:07:38;;;;;;;2.33;1.73;;;9.80;99.90;;;;;;4813618;29;20208;-72
2024/01/26 07:10:04;;;;;;;2.27;1.47;;;9.90;99.90;;;;;;4813027;29;20226;-75
2024/01/26 07:12:30;;;;;;;3.33;2.60;;;9.90;99.90;;;;;;4812898;29;20206;-74
2024/01/26 07:14:56;;;;;;;2.43;2.00;;;9.90;99.90;;;;;;4829221;29;20440;-74
2024/01/26 07:17:21;;;;;;;4.13;1.90;;;10.00;99.90;;;;;;4831781;29;20204;-73
2024/01/26 07:19:47;;;;;;;2.97;2.60;;;10.00;99.90;;;;;;4819011;29;20219;-75
2024/01/26 07:22:12;;;;;;;8.00;2.70;;;10.00;99.90;;;;;;4814178;29;20200;-74
2024/01/26 07:24:38;;;;;;;5.83;2.63;;;10.00;99.90;;;;;;4812809;29;20222;-73
2024/01/26 07:27:03;;;;;;;2.43;2.17;;;9.90;99.90;;;;;;4812371;29;20214;-74
2024/01/26 07:29:31;;;;;;;2.43;2.10;;;9.80;99.90;;;;;;4827141;29;20190;-76
2024/01/26 07:31:57;;;;;;;3.00;1.97;;;9.80;99.90;;;;;;4812904;29;20205;-74
2024/01/26 07:34:22;;;;;;;2.30;1.77;;;9.70;99.90;;;;;;4829782;29;20559;-73
2024/01/26 07:36:48;;;;;;;3.27;1.90;;;9.70;99.90;;;;;;4816778;29;20218;-74
2024/01/26 07:39:13;;;;;;;3.60;2.50;;;9.70;99.90;;;;;;4812282;29;20227;-73
2024/01/26 07:41:39;;;;;;;3.33;2.50;;;9.70;99.90;;;;;;4813272;29;20198;-73
2024/01/26 07:44:04;;;;;;;4.07;2.80;;;9.60;99.90;;;;;;4826922;29;20213;-72
2024/01/26 07:46:30;;;;;;;9.60;3.60;;;9.60;99.90;;;;;;4814145;29;20215;-78
2024/01/26 07:48:56;;;;;;;3.43;2.87;;;9.60;99.90;;;;;;4815002;29;20283;-76
2024/01/26 07:51:21;;;;;;;4.73;2.87;;;9.60;99.90;;;;;;4811932;29;20279;-74
2024/01/26 07:53:47;;;;;;;4.40;3.07;;;9.60;99.90;;;;;;4812128;29;20412;-75
2024/01/26 07:56:13;;;;;;;3.40;2.27;;;9.60;99.90;;;;;;4826757;29;20309;-73
2024/01/26 07:58:38;;;;;;;4.43;3.57;;;9.60;99.90;;;;;;4811013;29;20237;-75
2024/01/26 08:01:05;;;;;;;4.93;3.57;;;9.60;99.90;;;;;;4826450;29;20202;-76
2024/01/26 08:03:31;;;;;;;6.00;3.40;;;9.60;99.90;;;;;;4812322;29;20475;-73
2024/01/26 08:05:57;;;;;;;5.33;3.63;;;9.60;99.90;;;;;;4811793;29;20440;-73
2024/01/26 08:08:22;;;;;;;10.13;3.90;;;9.70;99.90;;;;;;4812954;29;20183;-72
2024/01/26 08:10:48;;;;;;;4.70;3.87;;;9.60;99.90;;;;;;4812094;29;20251;-73
2024/01/26 08:13:14;;;;;;;6.33;4.30;;;9.60;99.90;;;;;;4813037;29;20200;-74
2024/01/26 08:15:39;;;;;;;4.83;3.17;;;9.60;99.90;;;;;;4812999;29;20237;-73
2024/01/26 08:18:05;;;;;;;6.00;4.37;;;9.70;99.90;;;;;;4815153;29;20435;-72
2024/01/26 08:20:31;;;;;;;11.93;3.90;;;9.70;99.90;;;;;;4816867;29;20206;-75
2024/01/26 08:22:56;;;;;;;5.00;3.37;;;9.70;99.90;;;;;;4816712;29;20218;-75
2024/01/26 08:25:24;;;;;;;6.07;3.00;;;9.70;99.90;;;;;;4814047;29;20278;-76
2024/01/26 08:27:49;;;;;;;3.30;2.80;;;9.70;99.90;;;;;;4828626;29;20196;-73
2024/01/26 08:30:15;;;;;;;2.97;2.20;;;9.70;99.90;;;;;;4813696;29;20536;-75
2024/01/26 08:32:41;;;;;;;3.40;2.83;;;9.80;99.90;;;;;;4831397;29;20194;-73
2024/01/26 08:35:09;;;;;;;3.60;2.30;;;9.80;99.90;;;;;;4813071;29;20451;-77
2024/01/26 08:37:35;;;;;;;4.03;2.13;;;9.80;99.90;;;;;;4831423;29;20190;-76
2024/01/26 08:40:01;;;;;;;3.00;2.40;;;9.80;99.90;;;;;;4819453;29;20431;-74
2024/01/26 08:42:26;;;;;;;4.10;2.37;;;9.80;99.90;;;;;;4818090;29;20522;-76
2024/01/26 08:44:52;;;;;;;3.30;2.37;;;9.80;99.90;;;;;;4833382;29;20186;-76
2024/01/26 08:47:18;;;;;;;2.70;2.30;;;9.80;99.90;;;;;;4815537;29;20214;-75
2024/01/26 08:49:43;;;;;;;3.00;2.10;;;9.80;99.90;;;;;;4819862;29;20273;-74
2024/01/26 08:52:09;;;;;;;2.47;1.77;;;9.90;99.90;;;;;;4819855;29;20255;-74
2024/01/26 08:54:34;;;;;;;2.97;2.07;;;9.90;99.90;;;;;;4820152;29;20468;-76
2024/01/26 08:57:00;;;;;;;1.70;1.40;;;9.90;99.90;;;;;;4831450;29;20231;-76
2024/01/26 08:59:25;;;;;;;3.23;2.20;;;10.00;99.90;;;;;;4816646;29;20203;-74
2024/01/26 09:01:51;;;;;;;2.40;1.73;;;10.00;99.90;;;;;;4831620;29;20455;-74
2024/01/26 09:04:16;;;;;;;2.20;1.50;;;10.00;99.90;;;;;;4833360;29;20246;-73
2024/01/26 09:06:42;;;;;;;2.27;1.20;;;10.00;99.90;;;;;;4820921;29;20218;-74
2024/01/26 09:09:08;;;;;;;2.93;1.90;;;10.00;99.90;;;;;;4819726;29;20212;-75
2024/01/26 09:11:34;;;;;;;2.20;1.50;;;10.00;99.90;;;;;;4831642;29;20213;-76
2024/01/26 09:14:00;;;;;;;1.73;1.23;;;10.10;99.90;;;;;;4817772;29;20428;-75
2024/01/26 09:16:25;;;;;;;2.67;1.77;;;10.10;99.90;;;;;;4817361;29;20301;-76
2024/01/26 09:18:51;;;;;;;1.80;1.30;;;10.10;99.90;;;;;;4813992;29;20244;-76
2024/01/26 09:21:17;;;;;;;1.90;1.00;;;10.20;99.90;;;;;;4821663;29;20198;-74
2024/01/26 09:23:43;;;;;;;2.30;1.27;;;10.10;99.90;;;;;;4815830;29;20554;-75
2024/01/26 09:26:12;;;;;;;2.07;1.30;;;10.20;99.90;;;;;;4815568;29;20463;-76
2024/01/26 09:28:38;;;;;;;1.50;1.13;;;10.10;99.90;;;;;;4814741;29;20452;-75
2024/01/26 09:31:04;;;;;;;1.27;0.93;;;10.20;99.90;;;;;;4816863;29;20728;-76
2024/01/26 09:33:30;;;;;;;1.70;1.00;;;10.20;99.90;;;;;;4816297;29;20552;-75
2024/01/26 09:35:56;;;;;;;1.00;0.80;;;10.20;99.90;;;;;;4817630;29;20491;-75
2024/01/26 09:38:25;;;;;;;1.67;1.10;;;10.20;99.90;;;;;;4816740;29;20198;-76
2024/01/26 09:40:52;;;;;;;1.30;1.10;;;10.20;99.90;;;;;;4817420;29;20721;-77
2024/01/26 09:43:21;;;;;;;1.77;1.30;;;10.30;99.90;;;;;;4818644;29;20482;-76
2024/01/26 09:46:07;;;;;;;2.87;1.10;;;10.30;99.90;;;;;;4818940;29;20760;-76
2024/01/26 09:48:42;;;;;;;1.60;1.00;;;10.30;99.90;;;;;;4818287;29;20432;-77
2024/01/26 09:51:11;;;;;;;1.30;1.00;;;10.50;99.90;;;;;;4819793;29;20426;-76
2024/01/26 09:53:38;;;;;;;1.33;1.00;;;10.60;99.90;;;;;;4815534;29;20467;-76
2024/01/26 09:56:06;;;;;;;1.40;0.93;;;10.70;99.90;;;;;;4816867;29;20464;-78
2024/01/26 09:58:32;;;;;;;1.40;1.10;;;10.70;99.90;;;;;;4815491;29;20443;-76
2024/01/26 10:00:59;;;;;;;2.00;1.03;;;10.70;99.90;;;;;;4817207;29;20484;-78
2024/01/26 10:03:25;;;;;;;2.53;1.87;;;10.70;99.90;;;;;;4832995;29;20475;-76
2024/01/26 10:05:51;;;;;;;2.10;1.20;;;10.80;99.90;;;;;;4817215;29;20457;-78
2024/01/26 10:08:17;;;;;;;1.47;1.23;;;10.80;99.90;;;;;;4822511;29;20548;-76
2024/01/26 10:10:43;;;;;;;2.77;1.30;;;10.90;99.90;;;;;;4822748;29;20423;-76
2024/01/26 10:13:09;;;;;;;1.60;1.43;;;10.90;99.90;;;;;;4816017;29;20213;-75
2024/01/26 10:15:36;;;;;;;1.53;1.17;;;10.90;99.90;;;;;;4814747;29;20490;-74
2024/01/26 10:18:02;;;;;;;3.13;1.33;;;10.90;99.90;;;;;;4818553;29;20443;-75
2024/01/26 10:20:28;;;;;;;1.50;1.10;;;10.90;99.90;;;;;;4810734;29;20437;-74
2024/01/26 10:22:54;;;;;;;2.17;1.23;;;10.90;99.90;;;;;;4828977;29;20465;-76
2024/01/26 10:25:20;;;;;;;1.80;1.53;;;10.90;99.90;;;;;;4829621;29;20225;-75
2024/01/26 10:27:46;;;;;;;1.80;1.37;;;10.90;99.90;;;;;;4830033;29;20513;-78
2024/01/26 10:30:13;;;;;;;2.40;1.30;;;10.90;99.90;;;;;;4816877;29;20565;-76
2024/01/26 10:32:39;;;;;;;1.63;1.53;;;10.90;99.90;;;;;;4815890;29;20543;-77
2024/01/26 10:35:07;;;;;;;1.53;1.43;;;11.00;99.90;;;;;;4815751;29;20437;-75
2024/01/26 10:37:34;;;;;;;2.17;1.83;;;11.00;99.90;;;;;;4817851;29;20521;-76
2024/01/26 10:40:08;;;;;;;3.17;2.07;;;10.90;99.90;;;;;;4820466;29;20428;-78
2024/01/26 10:42:36;;;;;;;3.00;1.70;;;11.00;99.90;;;;;;4818110;29;20515;-79
2024/01/26 10:45:04;;;;;;;2.30;2.03;;;10.90;99.90;;;;;;4817855;29;20409;-75
2024/01/26 10:47:33;;;;;;;2.43;1.80;;;11.00;99.90;;;;;;4816790;29;20449;-77
2024/01/26 10:50:04;;;;;;;2.33;1.90;;;11.10;99.90;;;;;;4805859;29;20562;-74
2024/01/26 10:52:34;;;;;;;3.80;2.00;;;11.10;99.90;;;;;;4837552;29;20452;-77
2024/01/26 10:55:02;;;;;;;2.43;1.97;;;11.10;99.90;;;;;;4821760;29;20436;-76
2024/01/26 10:57:28;;;;;;;2.30;1.80;;;11.10;99.90;;;;;;4816987;29;20529;-75
2024/01/26 10:59:54;;;;;;;3.00;1.97;;;11.00;99.90;;;;;;4830508;29;20448;-74
2024/01/26 11:02:31;;;;;;;2.13;1.73;;;11.00;99.90;;;;;;4830453;29;20213;-76
2024/01/26 11:05:02;;;;;;;2.43;2.20;;;10.90;99.90;;;;;;4820761;29;20447;-75
2024/01/26 11:07:31;;;;;;;3.83;2.10;;;10.90;99.90;;;;;;4817349;29;20420;-77
2024/01/26 11:10:04;;;;;;;2.30;2.10;;;10.90;99.90;;;;;;4816542;29;20452;-77
2024/01/26 11:12:31;;;;;;;3.43;2.23;;;10.90;99.90;;;;;;4815728;29;20442;-75
2024/01/26 11:15:12;;;;;;;2.70;2.20;;;10.90;99.90;;;;;;4817880;29;20436;-76
2024/01/26 11:17:57;;;;;;;3.70;2.63;;;10.90;99.90;;;;;;4819000;29;20526;-78
2024/01/26 11:20:30;;;;;;;5.93;2.50;;;10.80;99.90;;;;;;4821958;29;20908;-75
2024/01/26 11:23:09;;;;;;;4.20;3.13;;;10.70;99.90;;;;;;4815501;29;21075;-75
2024/01/26 11:25:41;;;;;;;7.07;3.00;;;10.50;99.90;;;;;;4817145;29;20448;-78
2024/01/26 11:28:08;;;;;;;3.93;2.63;;;10.30;99.90;;;;;;4816540;29;20529;-77
2024/01/26 11:30:37;;;;;;;4.57;2.57;;;10.00;99.90;;;;;;4818715;29;20450;-77
2024/01/26 11:33:14;;;;;;;2.63;2.20;;;9.80;99.90;;;;;;4821615;29;20470;-76
2024/01/26 11:35:40;;;;;;;3.10;1.70;;;9.60;99.90;;;;;;4817707;29;20555;-77
2024/01/26 11:38:06;;;;;;;5.57;1.67;;;9.40;99.90;;;;;;4816172;29;20447;-76
2024/01/26 11:40:32;;;;;;;3.17;1.67;;;9.20;99.90;;;;;;4818721;29;20443;-77
2024/01/26 11:42:59;;;;;;;2.60;1.53;;;9.00;99.90;;;;;;4819093;29;20596;-75
2024/01/26 11:45:42;;;;;;;2.80;1.80;;;9.00;99.90;;;;;;4816365;29;20480;-76
2024/01/26 11:48:09;;;;;;;5.30;1.90;;;8.90;99.90;;;;;;4832662;29;20888;-77
2024/01/26 11:50:36;;;;;;;4.97;1.60;;;8.90;99.90;;;;;;4800591;29;20483;-76
2024/01/26 11:53:04;;;;;;;8.23;2.53;;;8.90;99.90;;;;;;4814598;29;20432;-74
2024/01/26 11:55:30;;;;;;;5.20;2.23;;;8.90;99.90;;;;;;4818101;29;20444;-78
2024/01/26 11:57:55;;;;;;;6.33;2.70;;;9.00;99.90;;;;;;4831176;29;20531;-77
2024/01/26 12:00:21;;;;;;;11.80;3.30;;;8.90;99.90;;;;;;4817082;29;20464;-75
2024/01/26 12:02:47;;;;;;;5.57;2.30;;;8.90;99.90;;;;;;4831886;29;20477;-78
2024/01/26 12:05:16;;;;;;;11.80;3.10;;;8.90;99.90;;;;;;4802285;29;20207;-79
2024/01/26 12:07:41;;;;;;;15.40;4.07;;;8.90;99.90;;;;;;4816722;29;20416;-77
2024/01/26 12:10:09;;;;;;;10.43;2.90;;;8.80;99.90;;;;;;4830282;29;20811;-77
2024/01/26 12:12:35;;;;;;;13.97;3.47;;;8.70;99.90;;;;;;4818520;29;20202;-76
2024/01/26 12:15:03;;;;;;;7.60;3.13;;;8.70;99.90;;;;;;4816893;29;20488;-77
2024/01/26 12:17:28;;;;;;;17.87;4.20;;;8.70;99.90;;;;;;4817946;29;20792;-77
2024/01/26 12:19:54;;;;;;;7.73;3.07;;;8.80;99.90;;;;;;4815702;29;20448;-74
2024/01/26 12:22:20;;;;;;;8.80;2.77;;;8.90;99.90;;;;;;4815121;29;20191;-76
2024/01/26 12:24:46;;;;;;;12.73;3.33;;;8.80;99.90;;;;;;4830336;29;20470;-78
2024/01/26 12:27:11;;;;;;;13.30;4.23;;;8.90;99.90;;;;;;4817138;29;20240;-76
2024/01/26 12:29:37;;;;;;;8.70;2.93;;;8.90;99.90;;;;;;4832078;29;20640;-76
2024/01/26 12:32:08;;;;;;;11.40;2.70;;;8.80;99.90;;;;;;4815396;29;20210;-77
2024/01/26 12:34:35;;;;;;;10.83;3.53;;;8.60;99.90;;;;;;4830415;29;20241;-76
2024/01/26 12:37:01;;;;;;;10.07;2.73;;;8.40;99.90;;;;;;4818878;29;20484;-76
2024/01/26 12:39:28;;;;;;;9.10;2.70;;;8.10;99.90;;;;;;4834992;29;20461;-77
2024/01/26 12:41:55;;;;;;;6.23;3.00;;;7.80;99.90;;;;;;4829507;29;20426;-75
2024/01/26 12:44:31;;;;;;;6.53;2.93;;;7.50;99.90;;;;;;4815846;29;20497;-76
2024/01/26 12:46:58;;;;;;;9.50;2.53;;;7.40;99.90;;;;;;4830195;29;20966;-76
2024/01/26 12:49:25;;;;;;;3.70;1.40;;;7.30;99.90;;;;;;4814530;29;20488;-73